Time;durP1;ratioP1;P1;durP2;ratioP2;P2;SDS_P1;SDS_P2;PMS_P1;PMS_P2;Temp;Humidity;BMP_temperature;BMP_pressure;BME280_temperature;BME280_humidity;BME280_pressure;Samples;Min_cycle;Max_cycle;Signal;HPM_P1;HPM_P2
2021/01/06 00:05:15;;;;;;;0.90;0.70;;;;;;;0.72;100.00;98735.13;3727838;78;391920;-76
2021/01/06 00:10:36;;;;;;;15.13;1.37;;;;;;;0.70;100.00;98733.91;3727154;78;383799;-76
2021/01/06 00:15:58;;;;;;;1.13;1.03;;;;;;;0.67;100.00;98740.80;3727130;78;391870;-76
2021/01/06 00:21:19;;;;;;;0.80;0.60;;;;;;;0.60;100.00;98734.38;3727964;78;383822;-76
2021/01/06 00:26:40;;;;;;;0.90;0.70;;;;;;;0.65;100.00;98735.52;3727523;78;387839;-76
2021/01/06 00:32:02;;;;;;;2.33;1.40;;;;;;;0.75;100.00;98726.34;3726957;78;396022;-77
2021/01/06 00:37:25;;;;;;;1.50;1.40;;;;;;;0.74;100.00;98728.02;3726739;78;396130;-76
2021/01/06 00:42:46;;;;;;;0.80;0.67;;;;;;;0.77;100.00;98724.05;3727972;76;383570;-76
2021/01/06 00:48:08;;;;;;;1.70;1.60;;;;;;;0.71;100.00;98719.25;3727354;76;383574;-76
2021/01/06 00:53:29;;;;;;;0.90;0.50;;;;;;;0.75;100.00;98715.51;3727847;78;383590;-76
2021/01/06 00:58:50;;;;;;;1.00;0.80;;;;;;;0.75;100.00;98719.56;3727713;78;383801;-76
2021/01/06 01:04:11;;;;;;;2.30;0.87;;;;;;;0.71;100.00;98723.30;3727313;78;394277;-76
2021/01/06 01:09:32;;;;;;;4.87;1.27;;;;;;;0.81;100.00;98720.89;3727265;78;395081;-76
2021/01/06 01:14:53;;;;;;;1.73;0.90;;;;;;;0.74;100.00;98722.60;3727398;78;383818;-77
2021/01/06 01:20:16;;;;;;;0.80;0.57;;;;;;;0.72;100.00;98727.02;3727847;77;383569;-76
2021/01/06 01:25:37;;;;;;;1.17;0.83;;;;;;;0.82;100.00;98723.83;3727341;76;387773;-76
2021/01/06 01:30:59;;;;;;;0.80;0.40;;;;;;;0.82;100.00;98725.18;3727859;76;383571;-77
2021/01/06 01:36:20;;;;;;;1.03;0.93;;;;;;;0.84;100.00;98729.69;3727937;78;383578;-76
2021/01/06 01:41:41;;;;;;;1.30;1.00;;;;;;;0.84;100.00;98732.41;3727547;78;383619;-76
2021/01/06 01:47:08;;;;;;;1.83;1.23;;;;;;;0.88;100.00;98725.15;3726813;76;389843;-76
2021/01/06 01:52:35;;;;;;;0.90;0.80;;;;;;;0.83;100.00;98729.47;3727717;77;391959;-76
2021/01/06 01:58:00;;;;;;;0.80;0.40;;;;;;;0.76;100.00;98724.41;3727655;79;383814;-77
2021/01/06 02:03:39;;;;;;;1.13;1.03;;;;;;;0.86;100.00;98729.56;3726704;78;383782;-76
2021/01/06 02:09:03;;;;;;;1.20;0.80;;;;;;;0.85;100.00;98727.98;3726431;78;393947;-77
2021/01/06 02:14:27;;;;;;;0.80;0.40;;;;;;;0.90;100.00;98723.66;3714594;78;383582;-76
2021/01/06 02:19:49;;;;;;;0.90;0.50;;;;;;;0.91;100.00;98725.25;3728087;78;383827;-76
2021/01/06 02:25:12;;;;;;;0.80;0.60;;;;;;;0.91;100.00;98709.58;3727660;78;383593;-76
2021/01/06 02:30:34;;;;;;;1.00;0.83;;;;;;;0.84;100.00;98716.92;3725456;79;383766;-76
2021/01/06 02:35:55;;;;;;;1.43;1.10;;;;;;;0.94;100.00;98722.41;3727602;78;393951;-77
2021/01/06 02:41:17;;;;;;;0.80;0.43;;;;;;;0.91;100.00;98717.12;3728110;77;383594;-76
2021/01/06 02:46:39;;;;;;;0.97;0.80;;;;;;;0.83;100.00;98713.22;3727575;78;383570;-76
2021/01/06 02:52:03;;;;;;;0.80;0.50;;;;;;;0.86;100.00;98713.32;3728005;78;383566;-77
2021/01/06 02:57:24;;;;;;;1.10;0.97;;;;;;;0.77;100.00;98713.80;3727476;77;383566;-76
2021/01/06 03:02:45;;;;;;;0.80;0.40;;;;;;;0.74;100.00;98717.19;3727961;78;383786;-76
2021/01/06 03:08:11;;;;;;;2.40;1.00;;;;;;;0.80;100.00;98707.94;3726558;78;396026;-76
2021/01/06 03:13:32;;;;;;;28.73;1.13;;;;;;;0.95;100.00;98701.77;3725850;78;396134;-76
2021/01/06 03:18:55;;;;;;;0.80;0.50;;;;;;;0.88;100.00;98698.88;3727979;76;383767;-76
2021/01/06 03:24:18;;;;;;;0.80;0.40;;;;;;;0.81;100.00;98700.59;3728282;76;383578;-76
2021/01/06 03:29:42;;;;;;;0.87;0.53;;;;;;;0.88;100.00;98686.70;3728165;78;383841;-77
2021/01/06 03:35:09;;;;;;;1.00;0.77;;;;;;;0.86;100.00;98693.02;3727770;77;383543;-77
2021/01/06 03:40:39;;;;;;;0.90;0.63;;;;;;;0.91;100.00;98683.86;3727981;76;383550;-77
2021/01/06 03:46:27;;;;;;;0.90;0.60;;;;;;;0.90;100.00;98681.70;3727973;78;383617;-77
2021/01/06 03:52:16;;;;;;;0.90;0.50;;;;;;;0.88;100.00;98673.16;3727796;77;387808;-76
2021/01/06 03:57:38;;;;;;;0.80;0.50;;;;;;;0.91;100.00;98666.25;3727877;78;383968;-76
2021/01/06 04:03:01;;;;;;;0.80;0.40;;;;;;;0.86;100.00;98659.17;3727884;77;383566;-77
2021/01/06 04:08:28;;;;;;;0.87;0.53;;;;;;;0.99;100.00;98651.77;3727814;78;383658;-77
2021/01/06 04:13:49;;;;;;;1.73;1.20;;;;;;;0.92;100.00;98649.66;3726752;78;383785;-77
2021/01/06 04:19:11;;;;;;;1.00;0.90;;;;;;;0.89;100.00;98643.56;3727164;78;395043;-77
2021/01/06 04:24:32;;;;;;;1.00;0.50;;;;;;;0.89;100.00;98631.38;3727620;78;387679;-77
2021/01/06 04:29:53;;;;;;;0.80;0.50;;;;;;;0.91;100.00;98631.83;3728261;76;383586;-77
2021/01/06 04:35:15;;;;;;;1.77;0.80;;;;;;;0.89;100.00;98630.03;3727355;78;392265;-78
2021/01/06 04:40:39;;;;;;;1.00;0.57;;;;;;;0.90;100.00;98632.97;3727506;77;387803;-77
2021/01/06 04:46:03;;;;;;;1.87;0.60;;;;;;;0.88;100.00;98631.19;3727413;77;389778;-77
2021/01/06 04:51:28;;;;;;;2.10;1.27;;;;;;;0.88;100.00;98626.33;3726546;78;384010;-77
2021/01/06 04:57:04;;;;;;;7.27;1.53;;;;;;;0.97;100.00;98629.66;3725884;78;393999;-77
2021/01/06 05:02:37;;;;;;;0.80;0.40;;;;;;;0.92;100.00;98632.05;3727378;78;383787;-77
2021/01/06 05:08:16;;;;;;;0.80;0.50;;;;;;;1.02;100.00;98632.91;3727850;78;383817;-77
2021/01/06 05:13:40;;;;;;;1.00;0.70;;;;;;;1.11;100.00;98631.38;3726601;78;391904;-78
2021/01/06 05:19:03;;;;;;;0.80;0.50;;;;;;;1.07;100.00;98630.52;3726989;78;383766;-78
2021/01/06 05:24:37;;;;;;;0.80;0.40;;;;;;;1.15;100.00;98629.56;3728105;77;383782;-78
2021/01/06 05:30:00;;;;;;;0.97;0.77;;;;;;;1.17;100.00;98634.84;3727813;76;383547;-78
2021/01/06 05:35:24;;;;;;;1.07;0.97;;;;;;;1.22;100.00;98637.86;3727715;78;383570;-75
2021/01/06 05:40:46;;;;;;;0.80;0.60;;;;;;;1.14;100.00;98636.11;3768450;77;383561;-75
2021/01/06 05:46:10;;;;;;;0.90;0.60;;;;;;;1.21;100.00;98637.05;3778768;77;385720;-75
2021/01/06 05:51:37;;;;;;;0.80;0.40;;;;;;;1.23;100.00;98635.38;3669620;78;383603;-75
2021/01/06 05:57:21;;;;;;;0.83;0.50;;;;;;;1.20;100.00;98634.16;3647081;78;383584;-77
2021/01/06 06:02:52;;;;;;;0.80;0.50;;;;;;;1.18;100.00;98631.55;3752623;76;383804;-77
2021/01/06 06:08:31;;;;;;;0.90;0.67;;;;;;;1.12;100.00;98635.11;3766386;76;387972;-77
2021/01/06 06:14:28;;;;;;;1.00;0.80;;;;;;;1.29;100.00;98625.29;3702844;78;383842;-78
2021/01/06 06:20:10;;;;;;;4.20;1.07;;;;;;;1.21;100.00;98627.58;3696359;79;394047;-78
2021/01/06 06:25:34;;;;;;;0.80;0.50;;;;;;;1.24;100.00;98635.02;3589484;80;383577;-78
2021/01/06 06:31:13;;;;;;;3.80;0.93;;;;;;;1.31;100.00;98637.13;3774893;77;393993;-78
2021/01/06 06:36:38;;;;;;;0.80;0.40;;;;;;;1.24;100.00;98637.72;3754766;77;383577;-78
2021/01/06 06:42:23;;;;;;;0.80;0.47;;;;;;;1.18;100.00;98639.67;3791307;76;383795;-78
2021/01/06 06:47:52;;;;;;;9.30;0.93;;;;;;;1.18;100.00;98642.38;3665448;78;398205;-78
2021/01/06 06:53:22;;;;;;;1.23;0.83;;;;;;;1.03;100.00;98648.02;3724359;78;389872;-78
2021/01/06 06:58:55;;;;;;;0.80;0.60;;;;;;;0.98;100.00;98644.78;3719108;77;383566;-78
2021/01/06 07:04:27;;;;;;;2.53;2.33;;;;;;;1.01;100.00;98643.52;3723511;77;396069;-79
2021/01/06 07:09:51;;;;;;;0.80;0.50;;;;;;;1.06;100.00;98645.19;3724612;79;383778;-78
2021/01/06 07:15:33;;;;;;;3.03;1.27;;;;;;;1.04;100.00;98648.25;3723539;77;396085;-79
2021/01/06 07:21:00;;;;;;;0.80;0.40;;;;;;;1.07;100.00;98646.18;3724466;78;383762;-78
2021/01/06 07:26:36;;;;;;;1.00;0.60;;;;;;;1.08;100.00;98655.11;3706804;79;387754;-78
2021/01/06 07:32:01;;;;;;;1.07;0.80;;;;;;;1.08;100.00;98655.88;3722568;78;387753;-78
2021/01/06 07:37:37;;;;;;;1.57;1.47;;;;;;;1.07;100.00;98655.66;3723664;77;391900;-78
2021/01/06 07:43:10;;;;;;;1.67;0.83;;;;;;;1.16;100.00;98654.93;3723828;77;394380;-78
2021/01/06 07:48:47;;;;;;;2.30;1.60;;;;;;;1.14;100.00;98665.31;3723804;78;392078;-78
2021/01/06 07:54:11;;;;;;;0.90;0.60;;;;;;;1.13;100.00;98672.45;3724420;78;383558;-78
2021/01/06 07:59:47;;;;;;;8.27;1.60;;;;;;;1.08;100.00;98676.20;3723361;78;383592;-78
2021/01/06 08:05:27;;;;;;;1.60;1.43;;;;;;;1.06;100.00;98675.75;3722560;77;396127;-79
2021/01/06 08:10:50;;;;;;;1.90;1.70;;;;;;;1.20;100.00;98679.40;3723571;77;391928;-79
2021/01/06 08:16:17;;;;;;;0.90;0.57;;;;;;;1.17;100.00;98684.95;3724368;78;383789;-78
2021/01/06 08:21:56;;;;;;;0.90;0.80;;;;;;;1.21;100.00;98688.52;3724308;78;385877;-78
2021/01/06 08:27:29;;;;;;;0.80;0.50;;;;;;;1.34;100.00;98689.23;3724039;78;383789;-78
2021/01/06 08:32:53;;;;;;;4.73;1.33;;;;;;;1.35;100.00;98692.17;3723596;77;387896;-79
2021/01/06 08:38:26;;;;;;;1.40;1.30;;;;;;;1.36;100.00;98697.27;3723347;77;392962;-79
2021/01/06 08:43:48;;;;;;;2.03;1.40;;;;;;;1.34;100.00;98692.75;3711078;79;396099;-79
2021/01/06 08:49:30;;;;;;;0.80;0.40;;;;;;;1.50;100.00;98688.13;3724279;78;383798;-79
2021/01/06 08:55:01;;;;;;;1.07;0.97;;;;;;;1.53;100.00;98684.73;3723339;79;387691;-79
2021/01/06 09:00:28;;;;;;;0.93;0.83;;;;;;;1.55;100.00;98683.79;3724309;78;384138;-78
2021/01/06 09:05:52;;;;;;;2.60;1.77;;;;;;;1.54;100.00;98688.98;3723402;77;394218;-79
2021/01/06 09:11:24;;;;;;;0.87;0.57;;;;;;;1.61;100.00;98695.97;3724292;77;383808;-79
2021/01/06 09:16:53;;;;;;;0.80;0.70;;;;;;;1.64;100.00;98707.44;3724516;78;383960;-79
2021/01/06 09:22:17;;;;;;;2.60;1.43;;;;;;;1.65;100.00;98708.47;3723772;77;383779;-79
2021/01/06 09:27:44;;;;;;;1.50;1.17;;;;;;;1.72;100.00;98714.06;3723514;77;391951;-79
2021/01/06 09:33:14;;;;;;;0.80;0.60;;;;;;;1.77;100.00;98708.95;3752973;76;383810;-80
2021/01/06 09:38:51;;;;;;;1.63;1.07;;;;;;;1.84;100.00;98705.05;3843554;76;396293;-80
2021/01/06 09:44:13;;;;;;;0.80;0.40;;;;;;;1.88;100.00;98702.64;3791033;76;383824;-79
2021/01/06 09:49:37;;;;;;;1.37;1.27;;;;;;;2.05;100.00;98709.59;3830186;76;391858;-79
2021/01/06 09:55:00;;;;;;;0.80;0.40;;;;;;;2.11;100.00;98704.92;3854183;75;383579;-80
2021/01/06 10:00:36;;;;;;;1.47;1.27;;;;;;;2.27;100.00;98699.44;3853825;75;383818;-78
2021/01/06 10:06:17;;;;;;;0.90;0.40;;;;;;;2.45;100.00;98698.13;3832194;76;383627;-78
2021/01/06 10:12:13;;;;;;;0.80;0.40;;;;;;;2.66;100.00;98700.50;3800720;76;383812;-78
2021/01/06 10:17:42;;;;;;;0.80;0.50;;;;;;;2.85;100.00;98696.44;3800658;76;383788;-80
2021/01/06 10:23:18;;;;;;;0.90;0.50;;;;;;;2.90;100.00;98691.51;3800837;76;383816;-78
2021/01/06 10:28:45;;;;;;;1.00;0.90;;;;;;;3.07;100.00;98688.32;3801439;75;383792;-78
2021/01/06 10:34:12;;;;;;;4.00;0.70;;;;;;;3.09;100.00;98678.47;3800320;76;383804;-79
2021/01/06 10:39:49;;;;;;;0.80;0.40;;;;;;;3.09;100.00;98675.17;3782476;76;383594;-77
2021/01/06 10:45:13;;;;;;;1.20;0.90;;;;;;;3.12;100.00;98673.66;3737959;77;383860;-78
2021/01/06 10:50:43;;;;;;;0.80;0.53;;;;;;;3.19;100.00;98669.15;3738034;77;383590;-78
2021/01/06 10:56:13;;;;;;;0.80;0.50;;;;;;;3.26;100.00;98664.64;3738037;77;383594;-79
2021/01/06 11:01:43;;;;;;;0.90;0.80;;;;;;;3.27;100.00;98666.77;3738064;77;383837;-79
2021/01/06 11:07:25;;;;;;;0.80;0.40;;;;;;;3.37;100.00;98665.59;3738053;77;383554;-79
2021/01/06 11:12:58;;;;;;;0.90;0.70;;;;;;;3.40;100.00;98663.52;3737639;77;387788;-79
2021/01/06 11:18:25;;;;;;;2.20;1.53;;;;;;;3.44;100.00;98649.98;3733806;77;395004;-77
2021/01/06 11:23:56;;;;;;;1.57;1.47;;;;;;;3.53;100.00;98649.17;3736741;77;396377;-77
2021/01/06 11:29:24;;;;;;;6.03;1.43;;;;;;;3.56;100.00;98649.23;3737048;78;394179;-79
2021/01/06 11:34:47;;;;;;;5.00;2.37;;;;;;;3.62;100.00;98644.27;3735530;77;395044;-79
2021/01/06 11:40:12;;;;;;;3.20;2.73;;;;;;;3.64;100.00;98643.31;3786481;76;396086;-78
2021/01/06 11:45:36;;;;;;;1.77;1.67;;;;;;;3.62;100.00;98635.53;3852246;75;394208;-79
2021/01/06 11:51:15;;;;;;;1.73;1.63;;;;;;;3.65;100.00;98638.09;3853840;75;396286;-77
2021/01/06 11:56:39;;;;;;;0.97;0.87;;;;;;;3.60;100.00;98633.73;3815185;76;395019;-76
2021/01/06 12:02:14;;;;;;;1.23;0.90;;;;;;;3.66;100.00;98622.78;3854508;75;387820;-79
2021/01/06 12:07:50;;;;;;;4.70;1.83;;;;;;;3.47;100.00;98616.06;3854118;74;392121;-79
2021/01/06 12:13:46;;;;;;;0.90;0.70;;;;;;;3.45;100.00;98618.34;3854337;76;383818;-79
2021/01/06 12:19:19;;;;;;;0.90;0.50;;;;;;;3.45;100.00;98616.99;3854327;76;383563;-79
2021/01/06 12:24:43;;;;;;;0.80;0.60;;;;;;;3.58;100.00;98616.22;3855363;75;383536;-78
2021/01/06 12:30:16;;;;;;;1.60;0.73;;;;;;;3.54;100.00;98610.73;3854064;76;383771;-79
2021/01/06 12:35:43;;;;;;;0.90;0.60;;;;;;;3.68;100.00;98611.53;3854291;76;383814;-78
2021/01/06 12:41:08;;;;;;;0.87;0.53;;;;;;;3.70;100.00;98608.65;3816204;76;383883;-78
2021/01/06 12:47:00;;;;;;;0.80;0.70;;;;;;;3.80;100.00;98599.88;3791044;76;383569;-79
2021/01/06 12:52:38;;;;;;;0.80;0.60;;;;;;;3.92;100.00;98601.00;3773986;77;383812;-79
2021/01/06 12:58:17;;;;;;;1.30;0.93;;;;;;;4.12;100.00;98603.83;3790689;76;383753;-79
2021/01/06 13:03:51;;;;;;;0.90;0.60;;;;;;;4.46;100.00;98607.58;3791081;76;384507;-78
2021/01/06 13:09:17;;;;;;;1.73;1.37;;;;;;;4.71;100.00;98607.88;3789977;76;397120;-78
2021/01/06 13:14:47;;;;;;;0.90;0.70;;;;;;;5.10;100.00;98607.92;3791079;76;383581;-79
2021/01/06 13:20:11;;;;;;;0.90;0.70;;;;;;;5.28;100.00;98610.80;3790926;76;385616;-79
2021/01/06 13:25:38;;;;;;;1.40;0.70;;;;;;;5.19;100.00;98607.60;3790929;76;384526;-78
2021/01/06 13:31:26;;;;;;;0.80;0.40;;;;;;;5.22;100.00;98610.36;3766077;76;384514;-79
2021/01/06 13:36:55;;;;;;;1.00;0.80;;;;;;;5.16;100.00;98613.23;3790865;76;384819;-79
2021/01/06 13:42:26;;;;;;;0.80;0.40;;;;;;;4.94;100.00;98613.38;3844530;76;384502;-78
2021/01/06 13:48:05;;;;;;;0.80;0.40;;;;;;;4.69;100.00;98612.91;3855068;75;383571;-78
2021/01/06 13:53:35;;;;;;;0.80;0.40;;;;;;;4.61;100.00;98610.67;3855053;75;383767;-78
2021/01/06 13:58:59;;;;;;;0.90;0.50;;;;;;;4.55;100.00;98620.34;3793327;76;385695;-79
2021/01/06 14:04:22;;;;;;;2.80;0.73;;;;;;;4.29;100.00;98621.75;3788841;77;390778;-79
2021/01/06 14:10:13;;;;;;;1.53;0.70;;;;;;;4.16;100.00;98629.94;3785538;77;394029;-78
2021/01/06 14:16:06;;;;;;;0.80;0.40;;;;;;;4.11;100.00;98627.55;3780140;76;383785;-78
2021/01/06 14:21:42;;;;;;;0.90;0.63;;;;;;;3.96;100.00;98629.84;3762324;77;384517;-79
2021/01/06 14:27:24;;;;;;;2.10;0.80;;;;;;;3.80;100.00;98634.44;3790691;76;383585;-79
2021/01/06 14:33:05;;;;;;;2.50;1.27;;;;;;;3.83;100.00;98633.16;3792532;77;396036;-79
2021/01/06 14:38:29;;;;;;;0.80;0.50;;;;;;;3.81;100.00;98634.09;3786564;75;383576;-78
2021/01/06 14:44:10;;;;;;;0.80;0.50;;;;;;;3.69;100.00;98639.72;3790991;77;383575;-78
2021/01/06 14:49:35;;;;;;;0.80;0.40;;;;;;;3.58;100.00;98641.50;3790836;76;383569;-78
2021/01/06 14:54:59;;;;;;;0.90;0.70;;;;;;;3.50;100.00;98645.25;3790967;76;383572;-78
2021/01/06 15:00:27;;;;;;;2.10;1.07;;;;;;;3.48;100.00;98654.89;3790226;76;389782;-78
2021/01/06 15:06:08;;;;;;;1.10;0.60;;;;;;;3.51;100.00;98654.18;3790265;77;388741;-76
2021/01/06 15:11:32;;;;;;;4.83;1.60;;;;;;;3.42;100.00;98660.43;3785577;77;383589;-77
2021/01/06 15:16:59;;;;;;;1.00;0.90;;;;;;;3.28;100.00;98654.17;3786755;76;387693;-76
2021/01/06 15:22:23;;;;;;;1.10;1.00;;;;;;;3.22;100.00;98650.77;3786063;77;385627;-77
2021/01/06 15:27:47;;;;;;;1.93;1.83;;;;;;;3.17;100.00;98655.12;3786216;75;391960;-77
2021/01/06 15:33:29;;;;;;;8.27;5.67;;;;;;;3.11;100.00;98652.50;3785784;76;386941;-76
2021/01/06 15:38:56;;;;;;;2.27;1.53;;;;;;;3.07;100.00;98648.92;3787756;75;396140;-76
2021/01/06 15:44:25;;;;;;;3.73;0.90;;;;;;;3.09;100.00;98652.08;3799958;77;394194;-76
2021/01/06 15:49:47;;;;;;;1.07;0.97;;;;;;;3.07;100.00;98654.36;3800254;77;392083;-76
2021/01/06 15:55:23;;;;;;;0.80;0.60;;;;;;;3.09;100.00;98650.72;3800877;76;383577;-76
2021/01/06 16:00:47;;;;;;;2.73;1.70;;;;;;;3.10;100.00;98652.29;3799616;77;396120;-76
2021/01/06 16:06:08;;;;;;;2.27;1.33;;;;;;;3.10;100.00;98648.80;3766343;77;397063;-76
2021/01/06 16:11:30;;;;;;;3.73;1.10;;;;;;;3.01;100.00;98650.38;3737693;77;383625;-77
2021/01/06 16:17:00;;;;;;;0.90;0.80;;;;;;;3.01;100.00;98657.75;3737984;77;391903;-76
2021/01/06 16:22:30;;;;;;;0.80;0.40;;;;;;;3.02;100.00;98657.97;3738226;77;383920;-76
2021/01/06 16:27:52;;;;;;;1.07;0.70;;;;;;;2.95;100.00;98652.41;3738036;77;383574;-76
2021/01/06 16:33:17;;;;;;;5.13;1.10;;;;;;;2.96;100.00;98658.02;3737655;77;383585;-77
2021/01/06 16:38:39;;;;;;;0.80;0.70;;;;;;;3.16;100.00;98661.70;3752378;76;383774;-77
2021/01/06 16:44:01;;;;;;;1.10;1.00;;;;;;;3.14;100.00;98664.02;3823484;74;391890;-78
2021/01/06 16:49:25;;;;;;;1.60;1.50;;;;;;;3.04;100.00;98667.33;3799816;77;390223;-77
2021/01/06 16:54:50;;;;;;;2.03;1.93;;;;;;;3.04;100.00;98674.12;3800106;76;394003;-78
2021/01/06 17:00:20;;;;;;;5.03;1.03;;;;;;;2.94;100.00;98678.00;3799389;77;395295;-77
2021/01/06 17:05:43;;;;;;;0.87;0.70;;;;;;;2.94;100.00;98674.70;3773296;76;383566;-78
2021/01/06 17:11:10;;;;;;;1.97;1.77;;;;;;;2.81;100.00;98680.63;3737675;77;390071;-78
2021/01/06 17:16:31;;;;;;;0.90;0.50;;;;;;;2.85;100.00;98686.34;3738424;77;383596;-79
2021/01/06 17:21:54;;;;;;;0.80;0.60;;;;;;;2.79;100.00;98689.70;3738366;78;383577;-78
2021/01/06 17:27:21;;;;;;;1.10;0.60;;;;;;;2.76;100.00;98685.78;3738102;77;387788;-79
2021/01/06 17:32:42;;;;;;;1.43;1.33;;;;;;;2.72;100.00;98686.84;3737415;77;396022;-79
2021/01/06 17:38:11;;;;;;;4.23;1.50;;;;;;;2.72;100.00;98695.80;3737221;77;396077;-79
2021/01/06 17:43:33;;;;;;;1.20;1.10;;;;;;;2.64;100.00;98691.36;3737482;78;396270;-78
2021/01/06 17:48:56;;;;;;;1.97;1.87;;;;;;;2.68;100.00;98700.35;3737454;78;393123;-79
2021/01/06 17:54:17;;;;;;;1.30;0.87;;;;;;;2.52;100.00;98702.92;3737728;77;394330;-79
2021/01/06 17:59:39;;;;;;;1.13;1.03;;;;;;;2.50;100.00;98696.47;3737888;77;389848;-78
2021/01/06 18:05:08;;;;;;;0.80;0.63;;;;;;;2.51;100.00;98700.77;3755123;77;383573;-79
2021/01/06 18:10:31;;;;;;;4.37;1.40;;;;;;;2.50;100.00;98707.92;3756488;76;396122;-78
2021/01/06 18:15:52;;;;;;;1.73;1.17;;;;;;;2.54;100.00;98713.64;3757876;77;396077;-79
2021/01/06 18:21:34;;;;;;;2.60;1.53;;;;;;;2.52;100.00;98719.98;3777407;77;396065;-79
2021/01/06 18:27:07;;;;;;;1.37;1.20;;;;;;;2.32;100.00;98728.45;3753691;77;391926;-78
2021/01/06 18:32:31;;;;;;;1.00;0.87;;;;;;;2.38;100.00;98729.19;3761555;77;391969;-79
2021/01/06 18:37:59;;;;;;;1.27;0.90;;;;;;;2.31;100.00;98735.59;3751956;77;385625;-78
2021/01/06 18:43:22;;;;;;;1.43;1.30;;;;;;;2.43;100.00;98737.04;3754225;77;383794;-78
2021/01/06 18:48:43;;;;;;;1.53;0.73;;;;;;;2.48;100.00;98738.70;3751067;77;390084;-78
2021/01/06 18:54:04;;;;;;;1.37;1.27;;;;;;;2.52;100.00;98734.92;3768141;77;383573;-77
2021/01/06 18:59:30;;;;;;;1.30;1.03;;;;;;;2.47;100.00;98741.19;3759685;77;387767;-77
2021/01/06 19:05:00;;;;;;;2.17;1.97;;;;;;;2.26;100.00;98745.38;3735136;77;394982;-76
2021/01/06 19:10:23;;;;;;;1.00;0.87;;;;;;;2.27;100.00;98746.92;3694024;78;383586;-75
2021/01/06 19:15:48;;;;;;;1.77;1.23;;;;;;;2.19;100.00;98750.61;3697382;79;389766;-76
2021/01/06 19:21:12;;;;;;;2.27;1.10;;;;;;;2.20;100.00;98744.86;3695095;78;391865;-75
2021/01/06 19:26:33;;;;;;;0.90;0.80;;;;;;;2.20;100.00;98750.28;3763629;77;383786;-76
2021/01/06 19:31:57;;;;;;;10.60;5.10;;;;;;;2.18;100.00;98751.78;3790593;76;394276;-77
2021/01/06 19:37:23;;;;;;;3.90;1.83;;;;;;;2.15;100.00;98747.05;3790290;76;396334;-76
2021/01/06 19:42:48;;;;;;;2.40;0.60;;;;;;;2.14;100.00;98749.54;3764806;77;390024;-76
2021/01/06 19:48:09;;;;;;;2.60;1.20;;;;;;;2.12;100.00;98746.38;3789078;77;396073;-76
2021/01/06 19:53:38;;;;;;;3.47;1.37;;;;;;;2.11;100.00;98753.75;3791134;76;383588;-76
2021/01/06 19:59:00;;;;;;;2.10;1.07;;;;;;;2.09;100.00;98749.82;3790503;76;394025;-76
2021/01/06 20:04:23;;;;;;;2.13;1.00;;;;;;;2.13;100.00;98752.03;3790023;76;395081;-76
2021/01/06 20:09:44;;;;;;;0.87;0.70;;;;;;;2.11;100.00;98752.95;3786532;77;383813;-76
2021/01/06 20:15:06;;;;;;;1.43;1.33;;;;;;;2.07;100.00;98748.02;3786233;76;383577;-76
2021/01/06 20:20:27;;;;;;;1.90;1.27;;;;;;;2.12;100.00;98749.09;3785953;77;383816;-76
2021/01/06 20:25:48;;;;;;;1.90;1.53;;;;;;;2.07;100.00;98755.58;3785877;76;393237;-76
2021/01/06 20:31:09;;;;;;;2.40;1.80;;;;;;;2.04;100.00;98750.87;3785343;76;396136;-77
2021/01/06 20:36:31;;;;;;;1.40;1.07;;;;;;;2.01;100.00;98744.01;3785753;76;385620;-76
2021/01/06 20:41:52;;;;;;;1.40;1.30;;;;;;;2.04;100.00;98742.73;3785976;76;383586;-76
2021/01/06 20:47:13;;;;;;;1.43;0.90;;;;;;;2.03;100.00;98739.80;3785862;76;383621;-76
2021/01/06 20:52:34;;;;;;;1.80;1.70;;;;;;;2.01;100.00;98738.00;3785060;77;396117;-76
2021/01/06 20:57:55;;;;;;;1.20;0.90;;;;;;;1.97;100.00;98729.01;3785626;76;394028;-76
2021/01/06 21:03:16;;;;;;;1.30;1.17;;;;;;;1.87;100.00;98728.73;3785953;77;387993;-76
2021/01/06 21:08:42;;;;;;;2.20;1.37;;;;;;;1.96;100.00;98726.63;3737313;76;396138;-75
2021/01/06 21:14:03;;;;;;;1.60;1.50;;;;;;;1.99;100.00;98729.42;3737468;78;396344;-76
2021/01/06 21:19:25;;;;;;;1.40;1.13;;;;;;;1.94;100.00;98723.50;3737404;77;394997;-75
2021/01/06 21:24:46;;;;;;;3.27;1.83;;;;;;;1.90;100.00;98722.62;3737205;77;396328;-75
2021/01/06 21:30:10;;;;;;;1.33;1.23;;;;;;;1.84;100.00;98724.03;3737693;78;396066;-76
2021/01/06 21:35:31;;;;;;;0.87;0.63;;;;;;;1.94;100.00;98728.34;3711823;78;383973;-76
2021/01/06 21:40:53;;;;;;;1.53;1.43;;;;;;;1.90;100.00;98718.55;3732863;77;392141;-77
2021/01/06 21:46:14;;;;;;;1.10;0.70;;;;;;;1.93;100.00;98721.34;3738064;78;387807;-75
2021/01/06 21:51:35;;;;;;;1.07;0.97;;;;;;;1.95;100.00;98718.27;3769733;77;387853;-76
2021/01/06 21:56:56;;;;;;;5.47;1.80;;;;;;;2.04;100.00;98720.23;3799792;77;396067;-76
2021/01/06 22:02:17;;;;;;;1.47;1.37;;;;;;;2.03;100.00;98728.95;3800339;77;392113;-76
2021/01/06 22:07:38;;;;;;;1.63;1.20;;;;;;;2.01;100.00;98734.52;3799893;77;396108;-75
2021/01/06 22:12:59;;;;;;;1.73;1.63;;;;;;;1.94;100.00;98737.84;3800062;77;391957;-76
2021/01/06 22:18:21;;;;;;;10.53;2.40;;;;;;;1.94;100.00;98737.06;3800192;77;396057;-76
2021/01/06 22:23:43;;;;;;;0.90;0.50;;;;;;;2.03;100.00;98733.57;3800335;76;385671;-76
2021/01/06 22:29:04;;;;;;;1.80;1.70;;;;;;;1.99;100.00;98738.14;3800372;76;390008;-75
2021/01/06 22:34:26;;;;;;;3.13;2.83;;;;;;;1.99;100.00;98740.85;3799855;76;395074;-76
2021/01/06 22:39:47;;;;;;;2.07;1.67;;;;;;;2.01;100.00;98735.87;3799741;76;393550;-75
2021/01/06 22:45:09;;;;;;;4.30;3.90;;;;;;;2.11;100.00;98740.19;3799885;76;396116;-75
2021/01/06 22:50:29;;;;;;;1.10;1.00;;;;;;;2.11;100.00;98735.31;3800886;76;383576;-75
2021/01/06 22:55:51;;;;;;;1.90;1.80;;;;;;;2.06;100.00;98735.01;3799947;76;387743;-76
2021/01/06 23:01:12;;;;;;;1.43;1.07;;;;;;;2.00;100.00;98742.43;3799936;76;396130;-76
2021/01/06 23:06:34;;;;;;;1.07;0.83;;;;;;;1.98;100.00;98735.98;3801033;76;383843;-76
2021/01/06 23:11:55;;;;;;;0.80;0.50;;;;;;;2.05;100.00;98735.37;3800893;77;383579;-76
2021/01/06 23:17:16;;;;;;;2.93;0.97;;;;;;;2.04;100.00;98731.08;3800368;76;390806;-77
2021/01/06 23:22:38;;;;;;;0.80;0.50;;;;;;;1.98;100.00;98742.77;3801268;76;383831;-76
2021/01/06 23:27:59;;;;;;;1.40;0.70;;;;;;;2.02;100.00;98746.94;3800649;76;383572;-76
2021/01/06 23:33:20;;;;;;;1.20;1.10;;;;;;;1.99;100.00;98748.41;3800778;77;383567;-76
2021/01/06 23:38:41;;;;;;;1.93;1.20;;;;;;;2.01;100.00;98750.79;3800254;76;394000;-76
2021/01/06 23:44:03;;;;;;;1.63;0.73;;;;;;;1.88;100.00;98759.59;3801303;77;383773;-76
2021/01/06 23:49:24;;;;;;;2.80;0.83;;;;;;;1.80;100.00;98758.39;3800371;77;393982;-76
2021/01/06 23:54:45;;;;;;;4.53;1.23;;;;;;;1.83;100.00;98754.98;3800234;76;396028;-77
